Time;durP1;ratioP1;P1;durP2;ratioP2;P2;SDS_P1;SDS_P2;PMS_P1;PMS_P2;Temp;Humidity;BMP_temperature;BMP_pressure;BME280_temperature;BME280_humidity;BME280_pressure;Samples;Min_cycle;Max_cycle;Signal;HPM_P1;HPM_P2
2023/07/08 04:38:41;;;;;;;5.40;3.67;;;;;;;;;;12976704;22;20366;-84
2023/07/08 04:43:44;;;;;;;6.25;3.90;;;;;;;;;;12941376;22;20028;-84
2023/07/08 04:48:48;;;;;;;4.90;3.30;;;;;;;;;;12942952;22;20047;-84
2023/07/08 04:53:52;;;;;;;6.25;3.67;;;;;;;;;;12971678;22;20055;-87
2023/07/08 04:58:55;;;;;;;5.63;3.40;;;;;;;;;;12944587;22;20440;-86
2023/07/08 05:03:59;;;;;;;5.75;3.60;;;;;;;;;;12943105;22;20032;-87
2023/07/08 05:09:05;;;;;;;5.47;3.72;;;;;;;;;;12984220;22;20039;-85
2023/07/08 05:14:08;;;;;;;5.07;3.45;;;;;;;;;;12943104;22;20039;-85
2023/07/08 05:19:11;;;;;;;4.68;3.60;;;;;;;;;;12971560;22;20019;-85
2023/07/08 05:24:16;;;;;;;5.15;3.50;;;;;;;;;;12939273;22;20050;-84
2023/07/08 05:29:19;;;;;;;6.82;4.25;;;;;;;;;;12981136;22;20690;-83
2023/07/08 05:34:23;;;;;;;5.50;3.35;;;;;;;;;;12937265;22;20047;-83
2023/07/08 05:39:27;;;;;;;5.88;3.58;;;;;;;;;;12965116;22;20027;-84
2023/07/08 05:44:31;;;;;;;6.03;3.58;;;;;;;;;;12937729;22;20028;-84
2023/07/08 05:49:34;;;;;;;7.18;4.13;;;;;;;;;;12938124;22;20047;-83
2023/07/08 05:54:40;;;;;;;8.50;3.20;;;;;;;;;;12976966;22;20019;-84
2023/07/08 05:59:44;;;;;;;4.27;2.80;;;;;;;;;;12966956;22;20054;-85
2023/07/08 06:04:47;;;;;;;3.85;2.60;;;;;;;;;;12938042;22;20024;-84
2023/07/08 06:09:52;;;;;;;3.35;2.45;;;;;;;;;;12965952;22;20030;-84
2023/07/08 06:14:56;;;;;;;4.30;2.60;;;;;;;;;;12963123;22;20494;-85
2023/07/08 06:20:01;;;;;;;4.78;3.17;;;;;;;;;;12977972;22;20352;-85
2023/07/08 06:25:07;;;;;;;3.33;2.47;;;;;;;;;;12978998;22;20095;-85
2023/07/08 06:30:11;;;;;;;4.13;2.72;;;;;;;;;;12978151;22;20023;-84
2023/07/08 06:35:14;;;;;;;3.05;1.75;;;;;;;;;;12963434;22;20024;-84
2023/07/08 06:40:19;;;;;;;2.67;1.45;;;;;;;;;;12939183;22;20024;-84
2023/07/08 06:45:22;;;;;;;1.70;1.00;;;;;;;;;;12966922;22;20019;-84
2023/07/08 06:50:26;;;;;;;2.05;1.17;;;;;;;;;;12973724;22;20624;-85
2023/07/08 06:55:31;;;;;;;2.22;1.10;;;;;;;;;;12968747;22;20015;-86
2023/07/08 07:00:34;;;;;;;1.17;0.98;;;;;;;;;;12969476;22;20536;-85
2023/07/08 07:05:37;;;;;;;1.27;0.98;;;;;;;;;;12938637;22;20537;-85
2023/07/08 07:10:42;;;;;;;1.67;1.08;;;;;;;;;;12936089;22;20027;-86
2023/07/08 07:15:46;;;;;;;2.03;1.50;;;;;;;;;;12937833;22;20015;-84
2023/07/08 07:20:51;;;;;;;1.88;0.95;;;;;;;;;;12941348;22;20024;-84
2023/07/08 07:25:57;;;;;;;1.50;1.13;;;;;;;;;;12969939;22;20095;-85
2023/07/08 07:31:02;;;;;;;1.85;1.27;;;;;;;;;;12968808;22;20093;-85
2023/07/08 07:36:06;;;;;;;3.33;1.40;;;;;;;;;;12938537;22;20016;-85
2023/07/08 07:41:12;;;;;;;1.20;0.82;;;;;;;;;;12937213;22;20466;-86
2023/07/08 07:46:16;;;;;;;;;;;;;;;;;;12939063;22;20020;-85
2023/07/08 07:51:19;;;;;;;0.80;0.77;;;;;;;;;;12965067;22;19980;-85
2023/07/08 07:56:24;;;;;;;1.33;0.90;;;;;;;;;;12936708;22;20020;-86
2023/07/08 08:01:28;;;;;;;2.42;0.98;;;;;;;;;;12937789;22;20031;-86
2023/07/08 08:06:31;;;;;;;2.10;1.30;;;;;;;;;;12937569;22;20597;-85
2023/07/08 08:11:39;;;;;;;2.00;1.20;;;;;;;;;;12969191;22;20081;-84
2023/07/08 08:16:43;;;;;;;3.25;1.13;;;;;;;;;;12962261;22;20047;-85
2023/07/08 08:21:46;;;;;;;1.73;1.20;;;;;;;;;;12937821;22;20038;-86
2023/07/08 08:26:51;;;;;;;1.65;1.20;;;;;;;;;;12936950;22;20022;-85
2023/07/08 08:31:55;;;;;;;1.90;1.40;;;;;;;;;;12937501;22;20050;-86
2023/07/08 08:36:58;;;;;;;1.83;1.30;;;;;;;;;;12936880;22;20089;-85
2023/07/08 08:42:03;;;;;;;1.92;1.20;;;;;;;;;;12937573;22;20019;-86
2023/07/08 08:47:18;;;;;;;1.77;1.17;;;;;;;;;;12937498;22;20027;-86
2023/07/08 08:52:22;;;;;;;1.90;1.27;;;;;;;;;;12964367;22;20069;-84
2023/07/08 08:57:37;;;;;;;1.88;1.25;;;;;;;;;;12937255;22;20022;-86
2023/07/08 09:02:44;;;;;;;1.83;1.20;;;;;;;;;;12937489;22;20051;-85
2023/07/08 09:08:00;;;;;;;2.55;1.65;;;;;;;;;;12935799;22;20027;-85
2023/07/08 09:13:07;;;;;;;3.38;1.83;;;;;;;;;;12935682;22;20371;-86
2023/07/08 09:18:18;;;;;;;3.88;1.92;;;;;;;;;;12972876;22;20106;-85
2023/07/08 09:23:25;;;;;;;3.03;1.98;;;;;;;;;;12941801;22;20073;-85
2023/07/08 09:28:42;;;;;;;3.80;2.35;;;;;;;;;;12943865;22;20024;-85
2023/07/08 09:33:45;;;;;;;2.63;2.03;;;;;;;;;;12942139;22;20024;-85
2023/07/08 09:38:51;;;;;;;4.05;2.80;;;;;;;;;;12988359;22;20028;-85
2023/07/08 09:44:03;;;;;;;;;;;;;;;;;;12938967;22;20028;-84
2023/07/08 09:49:32;;;;;;;3.13;2.10;;;;;;;;;;12931698;22;20243;-83
2023/07/08 09:54:35;;;;;;;4.30;2.70;;;;;;;;;;12903933;22;20039;-84
2023/07/08 09:59:45;;;;;;;3.10;2.28;;;;;;;;;;12938707;22;20367;-85
2023/07/08 10:04:52;;;;;;;2.15;1.80;;;;;;;;;;12936593;22;20598;-86
2023/07/08 10:09:59;;;;;;;6.15;2.55;;;;;;;;;;12966597;22;20098;-84
2023/07/08 10:15:13;;;;;;;2.72;2.13;;;;;;;;;;12941942;22;20012;-85
2023/07/08 10:20:16;;;;;;;3.38;2.40;;;;;;;;;;12940118;22;20039;-85
2023/07/08 10:25:29;;;;;;;5.70;2.10;;;;;;;;;;12966962;22;20467;-86
2023/07/08 10:30:44;;;;;;;2.80;2.05;;;;;;;;;;12966389;22;20043;-85
2023/07/08 10:48:17;;;;;;;6.18;2.80;;;;;;;;;;12857066;23;20095;-89
2023/07/08 10:53:37;;;;;;;4.82;2.80;;;;;;;;;;12856359;23;20028;-88
2023/07/08 10:58:53;;;;;;;3.05;2.45;;;;;;;;;;12856333;23;20078;-88
2023/07/08 11:04:08;;;;;;;5.20;3.00;;;;;;;;;;12830639;23;20527;-89
2023/07/08 11:09:16;;;;;;;3.35;2.30;;;;;;;;;;12858490;23;20036;-88
2023/07/08 11:14:25;;;;;;;4.53;2.95;;;;;;;;;;12831872;23;20020;-89
2023/07/08 11:19:35;;;;;;;2.53;2.33;;;;;;;;;;12857879;23;20032;-89
2023/07/08 11:24:43;;;;;;;3.10;2.45;;;;;;;;;;12831243;23;20481;-89
2023/07/08 11:29:51;;;;;;;3.67;2.50;;;;;;;;;;12831076;23;20021;-89
2023/07/08 11:34:58;;;;;;;3.30;2.63;;;;;;;;;;12856821;23;20462;-89
2023/07/08 11:40:08;;;;;;;3.83;2.50;;;;;;;;;;12858372;23;20055;-89
2023/07/08 11:45:28;;;;;;;4.78;2.97;;;;;;;;;;12867634;23;20089;-89
2023/07/08 11:50:38;;;;;;;3.08;2.50;;;;;;;;;;12856463;23;20470;-90
2023/07/08 11:55:48;;;;;;;3.13;2.33;;;;;;;;;;12864547;23;20012;-89
2023/07/08 12:00:58;;;;;;;4.80;3.20;;;;;;;;;;12858177;23;20394;-89
2023/07/08 12:06:06;;;;;;;3.47;2.60;;;;;;;;;;12855844;23;20020;-90
2023/07/08 12:11:13;;;;;;;3.53;2.45;;;;;;;;;;12854828;23;20051;-89
2023/07/08 12:16:22;;;;;;;3.65;2.45;;;;;;;;;;12855606;23;20020;-89
2023/07/08 12:21:28;;;;;;;3.47;2.60;;;;;;;;;;12856074;23;20060;-89
2023/07/08 12:26:32;;;;;;;4.72;3.05;;;;;;;;;;12855843;23;20016;-90
2023/07/08 12:31:35;;;;;;;3.38;2.45;;;;;;;;;;12830396;23;20021;-90
2023/07/08 12:36:40;;;;;;;2.97;2.33;;;;;;;;;;12830593;23;20047;-90
2023/07/08 12:41:45;;;;;;;2.85;2.47;;;;;;;;;;12854606;23;20393;-89
2023/07/08 12:46:52;;;;;;;3.15;2.28;;;;;;;;;;12854494;23;20501;-89
2023/07/08 12:51:57;;;;;;;5.35;2.60;;;;;;;;;;12860200;23;20024;-90
2023/07/08 12:57:01;;;;;;;4.13;3.05;;;;;;;;;;12861862;23;20025;-89
2023/07/08 13:02:15;;;;;;;3.60;2.90;;;;;;;;;;12860071;23;20024;-89
2023/07/08 13:07:30;;;;;;;3.95;3.00;;;;;;;;;;12858618;23;20067;-90
2023/07/08 13:12:38;;;;;;;3.50;2.67;;;;;;;;;;12860120;23;20059;-90
2023/07/08 13:17:42;;;;;;;2.67;2.28;;;;;;;;;;12834911;23;20076;-90
2023/07/08 13:22:53;;;;;;;3.65;2.55;;;;;;;;;;12859524;23;20024;-90
2023/07/08 13:27:58;;;;;;;3.50;2.50;;;;;;;;;;12855440;23;20076;-90
2023/07/08 13:33:03;;;;;;;3.10;2.50;;;;;;;;;;12676103;23;99257;-90
2023/07/08 13:38:17;;;;;;;3.33;2.33;;;;;;;;;;12735843;23;20506;-89
2023/07/08 13:43:24;;;;;;;4.23;2.60;;;;;;;;;;12731954;23;20022;-89
2023/07/08 13:48:30;;;;;;;3.35;3.00;;;;;;;;;;12737061;23;20498;-90
2023/07/08 13:53:46;;;;;;;3.10;2.80;;;;;;;;;;12734229;23;20359;-89
2023/07/08 13:58:51;;;;;;;3.83;2.55;;;;;;;;;;12733811;23;20025;-89
2023/07/08 14:03:56;;;;;;;8.13;3.40;;;;;;;;;;12735006;23;20033;-90
2023/07/08 14:09:12;;;;;;;4.07;2.95;;;;;;;;;;12749996;23;20033;-90
2023/07/08 14:14:16;;;;;;;4.20;2.72;;;;;;;;;;12733025;23;20317;-90
2023/07/08 14:19:23;;;;;;;4.93;3.35;;;;;;;;;;12709028;23;20512;-89
2023/07/08 14:24:29;;;;;;;2.92;2.47;;;;;;;;;;12707549;23;20026;-90
2023/07/08 14:29:32;;;;;;;4.20;2.72;;;;;;;;;;12690484;23;20035;-90
2023/07/08 14:34:36;;;;;;;2.67;1.97;;;;;;;;;;12705616;23;20048;-89
2023/07/08 14:39:41;;;;;;;6.55;2.00;;;;;;;;;;12731693;23;20316;-90
2023/07/08 14:44:46;;;;;;;2.60;2.38;;;;;;;;;;12732467;23;20028;-90
2023/07/08 14:49:50;;;;;;;4.18;3.08;;;;;;;;;;12706112;23;20463;-89
2023/07/08 14:54:56;;;;;;;4.18;2.75;;;;;;;;;;12706165;23;20107;-90
2023/07/08 15:00:00;;;;;;;3.55;2.38;;;;;;;;;;12731865;23;20029;-89
2023/07/08 15:05:05;;;;;;;;;;;;;;;;;;12731242;23;20687;-90
2023/07/08 15:10:11;;;;;;;2.78;2.42;;;;;;;;;;12732285;23;19923;-90
2023/07/08 15:15:17;;;;;;;3.20;2.65;;;;;;;;;;12731807;23;20518;-89
2023/07/08 15:20:22;;;;;;;3.00;2.25;;;;;;;;;;12706804;23;20414;-89
2023/07/08 15:25:27;;;;;;;4.53;2.80;;;;;;;;;;12729767;23;20730;-88
2023/07/08 15:30:31;;;;;;;5.18;2.47;;;;;;;;;;12730314;23;20129;-90
2023/07/08 15:35:35;;;;;;;2.90;2.40;;;;;;;;;;12732062;23;20032;-89
2023/07/08 15:40:40;;;;;;;4.17;2.40;;;;;;;;;;12740162;23;20026;-88
2023/07/08 15:45:44;;;;;;;5.15;2.83;;;;;;;;;;12694043;23;20026;-88
2023/07/08 15:50:48;;;;;;;4.70;2.45;;;;;;;;;;12711059;23;20029;-89
2023/07/08 15:55:53;;;;;;;4.03;2.38;;;;;;;;;;12729736;23;20092;-90
2023/07/08 16:00:57;;;;;;;3.00;2.33;;;;;;;;;;12706167;23;20029;-89
2023/07/08 16:06:01;;;;;;;2.58;2.10;;;;;;;;;;12729465;23;20108;-88
2023/07/08 16:11:13;;;;;;;3.60;2.37;;;;;;;;;;12731494;23;20029;-89
2023/07/08 16:16:16;;;;;;;5.18;2.72;;;;;;;;;;12729510;23;20257;-89
2023/07/08 16:21:20;;;;;;;2.97;2.30;;;;;;;;;;12729091;23;20025;-86
2023/07/08 16:26:25;;;;;;;2.47;2.07;;;;;;;;;;12722356;23;20079;-86
2023/07/08 16:31:28;;;;;;;4.57;2.55;;;;;;;;;;12728261;23;20021;-87
2023/07/08 16:42:09;;;;;;;2.28;1.85;;;;;;;;;;12753807;23;20227;-85
2023/07/08 16:47:12;;;;;;;2.33;1.88;;;;;;;;;;12749283;23;20029;-85
2023/07/08 16:52:17;;;;;;;4.50;2.40;;;;;;;;;;12776561;23;20519;-85
2023/07/08 16:57:22;;;;;;;3.83;2.17;;;;;;;;;;12748680;23;20025;-85
2023/07/08 17:02:26;;;;;;;4.72;2.55;;;;;;;;;;12747987;23;20024;-85
2023/07/08 17:07:29;;;;;;;3.92;2.20;;;;;;;;;;12749952;23;20091;-85
2023/07/08 17:12:34;;;;;;;4.50;2.05;;;;;;;;;;12750106;23;20048;-85
2023/07/08 17:17:37;;;;;;;;;;;;;;;;;;12777759;23;20020;-85
2023/07/08 17:22:41;;;;;;;2.70;1.90;;;;;;;;;;12750664;23;19916;-85
2023/07/08 17:27:46;;;;;;;3.53;2.33;;;;;;;;;;12749658;23;20056;-85
2023/07/08 17:32:54;;;;;;;3.97;2.42;;;;;;;;;;12750356;23;20017;-85
2023/07/08 17:37:58;;;;;;;3.45;2.13;;;;;;;;;;12752842;23;20017;-84
2023/07/08 17:43:04;;;;;;;2.10;1.70;;;;;;;;;;12752333;23;20100;-85
2023/07/08 17:48:11;;;;;;;3.50;1.65;;;;;;;;;;12752933;23;20021;-85
2023/07/08 17:53:18;;;;;;;4.60;2.40;;;;;;;;;;12751669;23;20021;-86
2023/07/08 17:58:24;;;;;;;1.90;1.50;;;;;;;;;;12753069;23;20024;-85
2023/07/08 18:03:27;;;;;;;3.88;1.80;;;;;;;;;;12779802;23;20037;-84
2023/07/08 18:08:31;;;;;;;2.90;1.60;;;;;;;;;;12751825;23;20047;-84
2023/07/08 18:13:38;;;;;;;2.13;1.35;;;;;;;;;;12751716;23;20088;-85
2023/07/08 18:18:41;;;;;;;2.35;1.40;;;;;;;;;;12795984;23;20057;-85
2023/07/08 18:23:47;;;;;;;2.08;1.35;;;;;;;;;;12752609;23;20020;-84
2023/07/08 18:28:52;;;;;;;2.47;1.50;;;;;;;;;;12753855;23;20356;-85
2023/07/08 18:33:56;;;;;;;1.95;1.30;;;;;;;;;;12793669;23;20095;-85
2023/07/08 18:38:59;;;;;;;2.03;1.30;;;;;;;;;;12753719;23;20403;-85
2023/07/08 18:44:07;;;;;;;2.63;1.60;;;;;;;;;;12752810;23;20108;-84
2023/07/08 18:49:11;;;;;;;2.55;1.45;;;;;;;;;;12753358;23;20129;-85
2023/07/08 18:54:16;;;;;;;3.33;1.88;;;;;;;;;;12751051;23;20079;-84
2023/07/08 18:59:21;;;;;;;2.60;1.20;;;;;;;;;;12753336;23;20465;-85
2023/07/08 19:04:28;;;;;;;2.22;1.35;;;;;;;;;;12752169;23;20044;-85
2023/07/08 19:09:33;;;;;;;2.13;1.40;;;;;;;;;;12751025;23;20396;-85
2023/07/08 19:14:38;;;;;;;1.45;1.23;;;;;;;;;;12748954;23;20021;-84
2023/07/08 19:19:41;;;;;;;1.70;1.30;;;;;;;;;;12750741;23;20025;-84
2023/07/08 19:24:45;;;;;;;2.53;1.33;;;;;;;;;;12749759;23;20087;-84
2023/07/08 19:29:50;;;;;;;4.50;1.50;;;;;;;;;;12752145;23;20461;-84
2023/07/08 19:34:53;;;;;;;2.17;1.48;;;;;;;;;;12750902;23;20036;-85
2023/07/08 19:39:57;;;;;;;1.73;1.17;;;;;;;;;;12751624;23;20107;-85
2023/07/08 19:45:02;;;;;;;1.30;1.20;;;;;;;;;;12750587;23;20025;-84
2023/07/08 19:50:08;;;;;;;3.08;1.33;;;;;;;;;;12778654;23;20072;-84
2023/07/08 19:55:12;;;;;;;1.40;1.23;;;;;;;;;;12750930;23;20021;-86
2023/07/08 20:00:25;;;;;;;1.55;1.15;;;;;;;;;;12750440;23;20021;-84
2023/07/08 20:05:34;;;;;;;2.15;1.05;;;;;;;;;;12749367;23;20060;-84
2023/07/08 20:10:38;;;;;;;2.40;1.30;;;;;;;;;;12750704;23;20025;-84
2023/07/08 20:15:43;;;;;;;1.77;1.47;;;;;;;;;;12750717;23;20025;-84
2023/07/08 20:20:47;;;;;;;2.72;1.15;;;;;;;;;;12785482;23;20021;-84
2023/07/08 20:25:51;;;;;;;1.17;1.02;;;;;;;;;;12750885;23;20356;-85
2023/07/08 20:30:56;;;;;;;2.10;1.30;;;;;;;;;;12751115;23;20036;-85
2023/07/08 20:35:59;;;;;;;2.97;1.10;;;;;;;;;;12749836;23;20092;-84
2023/07/08 20:41:03;;;;;;;2.70;1.23;;;;;;;;;;12751616;23;20021;-85
2023/07/08 20:46:18;;;;;;;1.88;1.40;;;;;;;;;;12749857;23;20028;-84
2023/07/08 20:51:23;;;;;;;1.75;1.30;;;;;;;;;;12751071;23;20025;-84
2023/07/08 20:56:30;;;;;;;1.25;1.00;;;;;;;;;;12776360;23;20060;-84
2023/07/08 21:01:35;;;;;;;2.22;1.33;;;;;;;;;;12777585;23;20520;-84
2023/07/08 21:06:39;;;;;;;2.50;1.20;;;;;;;;;;12776786;23;20108;-83
2023/07/08 21:11:42;;;;;;;2.15;1.35;;;;;;;;;;12752616;23;20506;-85
2023/07/08 21:16:49;;;;;;;2.15;1.45;;;;;;;;;;12754133;23;20024;-84
2023/07/08 21:21:52;;;;;;;1.70;1.40;;;;;;;;;;12783604;23;20043;-85
2023/07/08 21:26:57;;;;;;;1.60;1.30;;;;;;;;;;12753716;23;20041;-84
2023/07/08 21:32:01;;;;;;;2.93;1.40;;;;;;;;;;12754110;23;20021;-84
2023/07/08 21:37:05;;;;;;;1.87;1.23;;;;;;;;;;12779189;23;20029;-84
2023/07/08 21:42:12;;;;;;;3.03;1.50;;;;;;;;;;12753328;23;20028;-84
2023/07/08 21:47:16;;;;;;;2.72;1.52;;;;;;;;;;12753505;23;20135;-84
2023/07/08 21:52:20;;;;;;;2.40;1.60;;;;;;;;;;12753566;23;20079;-85
2023/07/08 21:57:23;;;;;;;3.22;1.75;;;;;;;;;;12752347;23;20036;-84
2023/07/08 22:02:30;;;;;;;2.38;1.55;;;;;;;;;;12753197;23;20029;-85
2023/07/08 22:07:33;;;;;;;3.55;1.60;;;;;;;;;;12753262;23;20502;-84
2023/07/08 22:12:39;;;;;;;3.63;1.77;;;;;;;;;;12753058;23;20021;-85
2023/07/08 22:17:44;;;;;;;2.05;1.50;;;;;;;;;;12751845;23;20025;-85
2023/07/08 22:22:49;;;;;;;3.60;1.50;;;;;;;;;;12752022;23;20836;-85
2023/07/08 22:27:53;;;;;;;2.47;1.50;;;;;;;;;;12780252;23;20047;-85
2023/07/08 22:32:58;;;;;;;2.83;1.38;;;;;;;;;;12752374;23;20356;-85
2023/07/08 22:44:03;;;;;;;1.80;1.38;;;;;;;;;;12792419;23;20025;-86
2023/07/08 22:49:08;;;;;;;3.47;1.45;;;;;;;;;;12710984;23;20025;-92
2023/07/08 22:54:14;;;;;;;2.92;1.52;;;;;;;;;;12736023;23;20032;-92
2023/07/08 22:59:18;;;;;;;3.70;1.40;;;;;;;;;;12709424;23;20026;-90
2023/07/08 23:04:23;;;;;;;3.13;1.27;;;;;;;;;;12748056;23;20036;-92
2023/07/08 23:09:27;;;;;;;2.20;1.50;;;;;;;;;;12733161;23;20029;-92
2023/07/08 23:14:30;;;;;;;2.95;1.65;;;;;;;;;;12733190;23;20317;-92
2023/07/08 23:19:35;;;;;;;2.00;1.70;;;;;;;;;;12707477;23;20029;-92
2023/07/08 23:24:39;;;;;;;3.37;1.47;;;;;;;;;;12733231;23;20406;-92
2023/07/08 23:29:42;;;;;;;2.00;1.58;;;;;;;;;;12731899;23;20466;-92
2023/07/08 23:34:47;;;;;;;2.17;1.42;;;;;;;;;;12731244;23;20033;-89
2023/07/08 23:39:51;;;;;;;2.75;1.63;;;;;;;;;;12732362;23;20279;-89
2023/07/08 23:44:54;;;;;;;1.60;1.40;;;;;;;;;;12707381;23;20121;-89
2023/07/08 23:49:59;;;;;;;2.35;1.70;;;;;;;;;;12733179;23;20025;-89
2023/07/08 23:55:03;;;;;;;2.10;1.48;;;;;;;;;;12706545;23;20080;-89
